sensor_id;sensor_type;location;lat;lon;timestamp;temperature;humidity
20829;DHT22;10575;50.124;8.582;2023-02-28T00:00:09;1.20;99.90
20829;DHT22;10575;50.124;8.582;2023-02-28T00:02:37;1.20;99.90
20829;DHT22;10575;50.124;8.582;2023-02-28T00:05:03;1.20;99.90
20829;DHT22;10575;50.124;8.582;2023-02-28T00:07:30;1.20;99.90
20829;DHT22;10575;50.124;8.582;2023-02-28T00:09:55;1.20;99.90
20829;DHT22;10575;50.124;8.582;2023-02-28T00:12:21;1.20;99.90
20829;DHT22;10575;50.124;8.582;2023-02-28T00:14:47;1.20;99.90
20829;DHT22;10575;50.124;8.582;2023-02-28T00:17:12;1.20;99.90
20829;DHT22;10575;50.124;8.582;2023-02-28T00:19:38;1.20;99.90
20829;DHT22;10575;50.124;8.582;2023-02-28T00:22:03;1.10;99.90
20829;DHT22;10575;50.124;8.582;2023-02-28T00:24:29;1.10;99.90
20829;DHT22;10575;50.124;8.582;2023-02-28T00:26:54;1.10;99.90
20829;DHT22;10575;50.124;8.582;2023-02-28T00:29:20;1.20;99.90
20829;DHT22;10575;50.124;8.582;2023-02-28T00:31:45;1.10;99.90
20829;DHT22;10575;50.124;8.582;2023-02-28T00:34:11;1.10;99.90
20829;DHT22;10575;50.124;8.582;2023-02-28T00:36:36;1.10;99.90
20829;DHT22;10575;50.124;8.582;2023-02-28T00:39:02;1.10;99.90
20829;DHT22;10575;50.124;8.582;2023-02-28T00:41:27;1.00;99.90
20829;DHT22;10575;50.124;8.582;2023-02-28T00:43:53;1.10;99.90
20829;DHT22;10575;50.124;8.582;2023-02-28T00:46:18;1.10;99.90
20829;DHT22;10575;50.124;8.582;2023-02-28T00:48:44;1.00;99.90
20829;DHT22;10575;50.124;8.582;2023-02-28T00:51:09;1.00;99.90
20829;DHT22;10575;50.124;8.582;2023-02-28T00:53:35;1.00;99.90
20829;DHT22;10575;50.124;8.582;2023-02-28T00:56:00;0.90;99.90
20829;DHT22;10575;50.124;8.582;2023-02-28T00:58:26;0.90;99.90
20829;DHT22;10575;50.124;8.582;2023-02-28T01:00:52;0.90;99.90
20829;DHT22;10575;50.124;8.582;2023-02-28T01:03:19;0.90;99.90
20829;DHT22;10575;50.124;8.582;2023-02-28T01:05:45;0.90;99.90
20829;DHT22;10575;50.124;8.582;2023-02-28T01:08:11;0.90;99.90
20829;DHT22;10575;50.124;8.582;2023-02-28T01:10:36;0.90;99.90
20829;DHT22;10575;50.124;8.582;2023-02-28T01:13:03;1.00;99.90
20829;DHT22;10575;50.124;8.582;2023-02-28T01:15:29;0.90;99.90
20829;DHT22;10575;50.124;8.582;2023-02-28T01:17:54;0.90;99.90
20829;DHT22;10575;50.124;8.582;2023-02-28T01:20:20;1.00;99.90
20829;DHT22;10575;50.124;8.582;2023-02-28T01:22:46;0.90;99.90
20829;DHT22;10575;50.124;8.582;2023-02-28T01:25:12;0.70;99.90
20829;DHT22;10575;50.124;8.582;2023-02-28T01:27:38;0.70;99.90
20829;DHT22;10575;50.124;8.582;2023-02-28T01:30:05;0.70;99.90
20829;DHT22;10575;50.124;8.582;2023-02-28T01:32:31;0.60;99.90
20829;DHT22;10575;50.124;8.582;2023-02-28T01:34:56;0.60;99.90
20829;DHT22;10575;50.124;8.582;2023-02-28T01:37:22;0.60;99.90
20829;DHT22;10575;50.124;8.582;2023-02-28T01:39:47;0.70;99.90
20829;DHT22;10575;50.124;8.582;2023-02-28T01:42:13;0.60;99.90
20829;DHT22;10575;50.124;8.582;2023-02-28T01:47:30;0.50;99.90
20829;DHT22;10575;50.124;8.582;2023-02-28T01:49:57;0.50;99.90
20829;DHT22;10575;50.124;8.582;2023-02-28T01:52:23;0.50;99.90
20829;DHT22;10575;50.124;8.582;2023-02-28T01:54:52;0.50;99.90
20829;DHT22;10575;50.124;8.582;2023-02-28T01:57:22;0.40;99.90
20829;DHT22;10575;50.124;8.582;2023-02-28T01:59:57;0.40;99.90
20829;DHT22;10575;50.124;8.582;2023-02-28T02:02:27;0.40;99.90
20829;DHT22;10575;50.124;8.582;2023-02-28T02:05:03;0.40;99.90
20829;DHT22;10575;50.124;8.582;2023-02-28T02:07:37;0.30;99.90
20829;DHT22;10575;50.124;8.582;2023-02-28T02:10:18;0.30;99.90
20829;DHT22;10575;50.124;8.582;2023-02-28T02:15:36;0.20;99.90
20829;DHT22;10575;50.124;8.582;2023-02-28T02:18:37;0.10;99.90
20829;DHT22;10575;50.124;8.582;2023-02-28T02:29:44;0.10;99.90
20829;DHT22;10575;50.124;8.582;2023-02-28T02:32:22;0.10;99.90
20829;DHT22;10575;50.124;8.582;2023-02-28T02:35:01;0.00;99.90
20829;DHT22;10575;50.124;8.582;2023-02-28T02:37:38;0.10;99.90
20829;DHT22;10575;50.124;8.582;2023-02-28T02:42:55;0.10;99.90
20829;DHT22;10575;50.124;8.582;2023-02-28T02:45:34;0.10;99.90
20829;DHT22;10575;50.124;8.582;2023-02-28T02:48:04;0.10;99.90
20829;DHT22;10575;50.124;8.582;2023-02-28T02:50:34;0.00;99.90
20829;DHT22;10575;50.124;8.582;2023-02-28T02:53:03;0.00;99.90
20829;DHT22;10575;50.124;8.582;2023-02-28T02:55:33;0.00;99.90
20829;DHT22;10575;50.124;8.582;2023-02-28T02:58:03;0.00;99.90
20829;DHT22;10575;50.124;8.582;2023-02-28T03:00:42;0.00;99.90
20829;DHT22;10575;50.124;8.582;2023-02-28T03:03:12;0.00;99.90
20829;DHT22;10575;50.124;8.582;2023-02-28T03:05:44;0.00;99.90
20829;DHT22;10575;50.124;8.582;2023-02-28T03:08:11;-0.10;99.90
20829;DHT22;10575;50.124;8.582;2023-02-28T03:10:44;0.00;99.90
20829;DHT22;10575;50.124;8.582;2023-02-28T03:16:07;0.00;99.90
20829;DHT22;10575;50.124;8.582;2023-02-28T03:18:48;0.00;99.90
20829;DHT22;10575;50.124;8.582;2023-02-28T03:21:51;-0.10;99.90
20829;DHT22;10575;50.124;8.582;2023-02-28T03:24:43;-0.10;99.90
20829;DHT22;10575;50.124;8.582;2023-02-28T03:27:23;-0.10;99.90
20829;DHT22;10575;50.124;8.582;2023-02-28T03:30:23;-0.10;99.90
20829;DHT22;10575;50.124;8.582;2023-02-28T03:33:01;-0.10;99.90
20829;DHT22;10575;50.124;8.582;2023-02-28T03:35:34;-0.10;99.90
20829;DHT22;10575;50.124;8.582;2023-02-28T03:38:19;-0.20;99.90
20829;DHT22;10575;50.124;8.582;2023-02-28T03:40:50;-0.20;99.90
20829;DHT22;10575;50.124;8.582;2023-02-28T03:43:21;-0.20;99.90
20829;DHT22;10575;50.124;8.582;2023-02-28T03:45:48;-0.20;99.90
20829;DHT22;10575;50.124;8.582;2023-02-28T03:48:25;-0.30;99.90
20829;DHT22;10575;50.124;8.582;2023-02-28T03:50:55;-0.30;99.90
20829;DHT22;10575;50.124;8.582;2023-02-28T03:53:36;-0.30;99.90
20829;DHT22;10575;50.124;8.582;2023-02-28T03:56:19;-0.30;99.90
20829;DHT22;10575;50.124;8.582;2023-02-28T03:58:51;-0.30;99.90
20829;DHT22;10575;50.124;8.582;2023-02-28T04:01:30;-0.40;99.90
20829;DHT22;10575;50.124;8.582;2023-02-28T04:03:57;-0.40;99.90
20829;DHT22;10575;50.124;8.582;2023-02-28T04:06:23;-0.40;99.90
20829;DHT22;10575;50.124;8.582;2023-02-28T04:08:49;-0.50;99.90
20829;DHT22;10575;50.124;8.582;2023-02-28T04:13:40;-0.50;99.90
20829;DHT22;10575;50.124;8.582;2023-02-28T04:16:09;-0.50;99.90
20829;DHT22;10575;50.124;8.582;2023-02-28T04:18:38;-0.50;99.90
20829;DHT22;10575;50.124;8.582;2023-02-28T04:21:05;-0.50;99.90
20829;DHT22;10575;50.124;8.582;2023-02-28T04:23:30;-0.50;99.90
20829;DHT22;10575;50.124;8.582;2023-02-28T04:25:56;-0.50;99.90
20829;DHT22;10575;50.124;8.582;2023-02-28T04:28:21;-0.50;99.90
20829;DHT22;10575;50.124;8.582;2023-02-28T04:30:47;-0.50;99.90
20829;DHT22;10575;50.124;8.582;2023-02-28T04:33:13;-0.50;99.90
20829;DHT22;10575;50.124;8.582;2023-02-28T04:35:38;-0.50;99.90
20829;DHT22;10575;50.124;8.582;2023-02-28T04:38:04;-0.50;99.90
20829;DHT22;10575;50.124;8.582;2023-02-28T04:40:29;-0.50;99.90
20829;DHT22;10575;50.124;8.582;2023-02-28T04:42:55;-0.50;99.90
20829;DHT22;10575;50.124;8.582;2023-02-28T04:45:20;-0.40;99.90
20829;DHT22;10575;50.124;8.582;2023-02-28T04:47:46;-0.40;99.90
20829;DHT22;10575;50.124;8.582;2023-02-28T04:50:11;-0.30;99.90
20829;DHT22;10575;50.124;8.582;2023-02-28T04:52:36;-0.30;99.90
20829;DHT22;10575;50.124;8.582;2023-02-28T04:55:02;-0.30;99.90
20829;DHT22;10575;50.124;8.582;2023-02-28T04:57:28;-0.20;99.90
20829;DHT22;10575;50.124;8.582;2023-02-28T04:59:53;-0.10;99.90
20829;DHT22;10575;50.124;8.582;2023-02-28T05:02:19;-0.10;99.90
20829;DHT22;10575;50.124;8.582;2023-02-28T05:04:46;-0.10;99.90
20829;DHT22;10575;50.124;8.582;2023-02-28T05:07:11;-0.10;99.90
20829;DHT22;10575;50.124;8.582;2023-02-28T05:09:37;-0.10;99.90
20829;DHT22;10575;50.124;8.582;2023-02-28T05:12:02;0.00;99.90
20829;DHT22;10575;50.124;8.582;2023-02-28T05:14:28;0.00;99.90
20829;DHT22;10575;50.124;8.582;2023-02-28T05:16:54;0.00;99.90
20829;DHT22;10575;50.124;8.582;2023-02-28T05:19:19;0.00;99.90
20829;DHT22;10575;50.124;8.582;2023-02-28T05:21:52;0.00;99.90
20829;DHT22;10575;50.124;8.582;2023-02-28T05:24:18;0.00;99.90
20829;DHT22;10575;50.124;8.582;2023-02-28T05:26:48;0.00;99.90
20829;DHT22;10575;50.124;8.582;2023-02-28T05:29:14;0.10;99.90
20829;DHT22;10575;50.124;8.582;2023-02-28T05:31:40;0.10;99.90
20829;DHT22;10575;50.124;8.582;2023-02-28T05:34:06;0.10;99.90
20829;DHT22;10575;50.124;8.582;2023-02-28T05:36:31;0.10;99.90
20829;DHT22;10575;50.124;8.582;2023-02-28T05:38:57;0.10;99.90
20829;DHT22;10575;50.124;8.582;2023-02-28T05:41:23;0.10;99.90
20829;DHT22;10575;50.124;8.582;2023-02-28T05:43:49;0.10;99.90
20829;DHT22;10575;50.124;8.582;2023-02-28T05:46:15;0.10;99.90
20829;DHT22;10575;50.124;8.582;2023-02-28T05:48:42;0.00;99.90
20829;DHT22;10575;50.124;8.582;2023-02-28T05:51:09;0.10;99.90
20829;DHT22;10575;50.124;8.582;2023-02-28T05:53:34;0.10;99.90
20829;DHT22;10575;50.124;8.582;2023-02-28T05:56:00;0.10;99.90
20829;DHT22;10575;50.124;8.582;2023-02-28T05:58:26;0.10;99.90
20829;DHT22;10575;50.124;8.582;2023-02-28T06:00:58;0.10;99.90
20829;DHT22;10575;50.124;8.582;2023-02-28T06:03:24;0.00;99.90
20829;DHT22;10575;50.124;8.582;2023-02-28T06:05:50;0.00;99.90
20829;DHT22;10575;50.124;8.582;2023-02-28T06:08:16;0.00;99.90
20829;DHT22;10575;50.124;8.582;2023-02-28T06:10:41;0.00;99.90
20829;DHT22;10575;50.124;8.582;2023-02-28T06:13:07;-0.10;99.90
20829;DHT22;10575;50.124;8.582;2023-02-28T06:15:33;-0.10;99.90
20829;DHT22;10575;50.124;8.582;2023-02-28T06:17:59;-0.10;99.90
20829;DHT22;10575;50.124;8.582;2023-02-28T06:20:26;-0.10;99.90
20829;DHT22;10575;50.124;8.582;2023-02-28T06:22:56;-0.10;99.90
20829;DHT22;10575;50.124;8.582;2023-02-28T06:25:24;-0.20;99.90
20829;DHT22;10575;50.124;8.582;2023-02-28T06:27:49;-0.10;99.90
20829;DHT22;10575;50.124;8.582;2023-02-28T06:30:15;-0.20;99.90
20829;DHT22;10575;50.124;8.582;2023-02-28T06:32:40;-0.10;99.90
20829;DHT22;10575;50.124;8.582;2023-02-28T06:35:06;-0.10;99.90
20829;DHT22;10575;50.124;8.582;2023-02-28T06:37:32;-0.10;99.90
20829;DHT22;10575;50.124;8.582;2023-02-28T06:39:58;0.00;99.90
20829;DHT22;10575;50.124;8.582;2023-02-28T06:42:24;0.00;99.90
20829;DHT22;10575;50.124;8.582;2023-02-28T06:44:55;0.00;99.90
20829;DHT22;10575;50.124;8.582;2023-02-28T06:47:21;0.10;99.90
20829;DHT22;10575;50.124;8.582;2023-02-28T06:49:46;0.20;99.90
20829;DHT22;10575;50.124;8.582;2023-02-28T06:52:12;0.20;99.90
20829;DHT22;10575;50.124;8.582;2023-02-28T06:54:37;0.30;99.90
20829;DHT22;10575;50.124;8.582;2023-02-28T06:57:03;0.30;99.90
20829;DHT22;10575;50.124;8.582;2023-02-28T06:59:29;0.60;99.90
20829;DHT22;10575;50.124;8.582;2023-02-28T07:01:54;0.90;99.90
20829;DHT22;10575;50.124;8.582;2023-02-28T07:04:21;1.20;99.90
20829;DHT22;10575;50.124;8.582;2023-02-28T07:06:46;1.40;99.90
20829;DHT22;10575;50.124;8.582;2023-02-28T07:09:12;1.50;99.90
20829;DHT22;10575;50.124;8.582;2023-02-28T07:11:39;1.70;99.90
20829;DHT22;10575;50.124;8.582;2023-02-28T07:14:05;1.70;99.90
20829;DHT22;10575;50.124;8.582;2023-02-28T07:16:30;1.70;99.90
20829;DHT22;10575;50.124;8.582;2023-02-28T07:18:55;1.60;99.90
20829;DHT22;10575;50.124;8.582;2023-02-28T07:21:21;1.60;99.90
20829;DHT22;10575;50.124;8.582;2023-02-28T07:23:47;2.00;99.90
20829;DHT22;10575;50.124;8.582;2023-02-28T07:26:16;2.60;99.90
20829;DHT22;10575;50.124;8.582;2023-02-28T07:28:42;2.90;99.90
20829;DHT22;10575;50.124;8.582;2023-02-28T07:31:09;3.20;99.90
20829;DHT22;10575;50.124;8.582;2023-02-28T07:33:35;3.10;99.90
20829;DHT22;10575;50.124;8.582;2023-02-28T07:36:07;3.00;99.90
20829;DHT22;10575;50.124;8.582;2023-02-28T07:38:37;2.70;99.90
20829;DHT22;10575;50.124;8.582;2023-02-28T07:41:03;2.60;99.90
20829;DHT22;10575;50.124;8.582;2023-02-28T07:43:34;2.60;99.90
20829;DHT22;10575;50.124;8.582;2023-02-28T07:46:04;2.80;99.90
20829;DHT22;10575;50.124;8.582;2023-02-28T07:48:31;3.60;99.90
20829;DHT22;10575;50.124;8.582;2023-02-28T07:50:57;4.90;99.90
20829;DHT22;10575;50.124;8.582;2023-02-28T07:53:22;6.10;99.90
20829;DHT22;10575;50.124;8.582;2023-02-28T07:55:48;6.70;99.90
20829;DHT22;10575;50.124;8.582;2023-02-28T07:58:14;6.70;99.90
20829;DHT22;10575;50.124;8.582;2023-02-28T08:00:39;6.40;99.90
20829;DHT22;10575;50.124;8.582;2023-02-28T08:03:05;5.80;99.90
20829;DHT22;10575;50.124;8.582;2023-02-28T08:05:30;5.30;99.90
20829;DHT22;10575;50.124;8.582;2023-02-28T08:07:56;5.50;99.90
20829;DHT22;10575;50.124;8.582;2023-02-28T08:10:22;6.60;99.90
20829;DHT22;10575;50.124;8.582;2023-02-28T08:12:47;7.80;99.90
20829;DHT22;10575;50.124;8.582;2023-02-28T08:15:13;8.50;99.90
20829;DHT22;10575;50.124;8.582;2023-02-28T08:17:38;8.80;99.90
20829;DHT22;10575;50.124;8.582;2023-02-28T08:20:04;8.60;99.90
20829;DHT22;10575;50.124;8.582;2023-02-28T08:22:30;7.80;99.90
20829;DHT22;10575;50.124;8.582;2023-02-28T08:24:56;7.70;99.90
20829;DHT22;10575;50.124;8.582;2023-02-28T08:27:21;7.70;99.90
20829;DHT22;10575;50.124;8.582;2023-02-28T08:29:47;7.60;99.90
20829;DHT22;10575;50.124;8.582;2023-02-28T08:32:12;6.70;99.90
20829;DHT22;10575;50.124;8.582;2023-02-28T08:34:39;6.00;99.90
20829;DHT22;10575;50.124;8.582;2023-02-28T08:37:05;5.70;99.90
20829;DHT22;10575;50.124;8.582;2023-02-28T08:39:34;5.50;99.90
20829;DHT22;10575;50.124;8.582;2023-02-28T08:42:00;5.30;99.90
20829;DHT22;10575;50.124;8.582;2023-02-28T08:44:25;5.70;99.90
20829;DHT22;10575;50.124;8.582;2023-02-28T08:46:52;6.60;99.90
20829;DHT22;10575;50.124;8.582;2023-02-28T08:49:18;7.50;99.90
20829;DHT22;10575;50.124;8.582;2023-02-28T08:51:44;8.10;99.90
20829;DHT22;10575;50.124;8.582;2023-02-28T08:54:09;8.40;99.90
20829;DHT22;10575;50.124;8.582;2023-02-28T08:56:38;9.10;99.90
20829;DHT22;10575;50.124;8.582;2023-02-28T08:59:04;10.50;96.50
20829;DHT22;10575;50.124;8.582;2023-02-28T09:01:30;12.10;92.50
20829;DHT22;10575;50.124;8.582;2023-02-28T09:03:57;13.90;83.90
20829;DHT22;10575;50.124;8.582;2023-02-28T09:06:24;16.30;72.30
20829;DHT22;10575;50.124;8.582;2023-02-28T09:08:51;17.90;59.50
20829;DHT22;10575;50.124;8.582;2023-02-28T09:11:17;16.80;57.00
20829;DHT22;10575;50.124;8.582;2023-02-28T09:13:45;16.70;56.00
20829;DHT22;10575;50.124;8.582;2023-02-28T09:16:13;17.00;53.50
20829;DHT22;10575;50.124;8.582;2023-02-28T09:18:39;16.40;55.00
20829;DHT22;10575;50.124;8.582;2023-02-28T09:21:07;18.40;51.20
20829;DHT22;10575;50.124;8.582;2023-02-28T09:23:33;19.90;47.20
20829;DHT22;10575;50.124;8.582;2023-02-28T09:25:59;19.60;45.70
20829;DHT22;10575;50.124;8.582;2023-02-28T09:28:25;18.90;46.00
20829;DHT22;10575;50.124;8.582;2023-02-28T09:30:53;20.00;44.90
20829;DHT22;10575;50.124;8.582;2023-02-28T09:33:19;19.90;42.70
20829;DHT22;10575;50.124;8.582;2023-02-28T09:35:49;19.70;42.40
20829;DHT22;10575;50.124;8.582;2023-02-28T09:38:15;19.70;41.50
20829;DHT22;10575;50.124;8.582;2023-02-28T09:40:54;18.20;43.40
20829;DHT22;10575;50.124;8.582;2023-02-28T09:43:23;14.70;47.50
20829;DHT22;10575;50.124;8.582;2023-02-28T09:46:40;12.00;52.70
20829;DHT22;10575;50.124;8.582;2023-02-28T09:48:44;10.00;56.70
20829;DHT22;10575;50.124;8.582;2023-02-28T09:51:32;8.70;63.10
20829;DHT22;10575;50.124;8.582;2023-02-28T09:53:59;8.10;62.10
20829;DHT22;10575;50.124;8.582;2023-02-28T09:56:35;7.80;65.80
20829;DHT22;10575;50.124;8.582;2023-02-28T09:59:14;7.00;66.40
20829;DHT22;10575;50.124;8.582;2023-02-28T10:07:03;6.10;70.60
20829;DHT22;10575;50.124;8.582;2023-02-28T10:09:45;6.10;71.50
20829;DHT22;10575;50.124;8.582;2023-02-28T10:12:12;6.10;72.20
20829;DHT22;10575;50.124;8.582;2023-02-28T10:14:45;5.90;73.20
20829;DHT22;10575;50.124;8.582;2023-02-28T10:17:15;5.90;73.80
20829;DHT22;10575;50.124;8.582;2023-02-28T10:22:49;6.10;74.60
20829;DHT22;10575;50.124;8.582;2023-02-28T10:25:22;6.60;73.40
20829;DHT22;10575;50.124;8.582;2023-02-28T10:27:49;6.60;73.00
20829;DHT22;10575;50.124;8.582;2023-02-28T10:30:15;6.20;74.10
20829;DHT22;10575;50.124;8.582;2023-02-28T10:32:47;6.00;75.10
20829;DHT22;10575;50.124;8.582;2023-02-28T10:35:24;6.10;76.20
20829;DHT22;10575;50.124;8.582;2023-02-28T10:38:00;6.10;75.10
20829;DHT22;10575;50.124;8.582;2023-02-28T10:40:35;5.90;75.90
20829;DHT22;10575;50.124;8.582;2023-02-28T10:43:16;5.90;75.90
20829;DHT22;10575;50.124;8.582;2023-02-28T10:46:01;5.80;77.10
20829;DHT22;10575;50.124;8.582;2023-02-28T10:48:37;6.30;78.00
20829;DHT22;10575;50.124;8.582;2023-02-28T10:51:04;6.90;77.50
20829;DHT22;10575;50.124;8.582;2023-02-28T10:53:37;7.00;73.30
20829;DHT22;10575;50.124;8.582;2023-02-28T10:58:56;6.40;72.80
20829;DHT22;10575;50.124;8.582;2023-02-28T11:01:36;6.20;75.10
20829;DHT22;10575;50.124;8.582;2023-02-28T11:04:04;6.50;73.90
20829;DHT22;10575;50.124;8.582;2023-02-28T11:06:41;6.70;72.00
20829;DHT22;10575;50.124;8.582;2023-02-28T11:11:57;7.10;72.20
20829;DHT22;10575;50.124;8.582;2023-02-28T11:14:28;7.20;70.50
20829;DHT22;10575;50.124;8.582;2023-02-28T11:17:00;6.90;72.80
20829;DHT22;10575;50.124;8.582;2023-02-28T11:19:33;6.70;72.60
20829;DHT22;10575;50.124;8.582;2023-02-28T11:22:02;6.50;72.30
20829;DHT22;10575;50.124;8.582;2023-02-28T11:24:33;6.50;74.60
20829;DHT22;10575;50.124;8.582;2023-02-28T11:27:00;6.60;73.90
20829;DHT22;10575;50.124;8.582;2023-02-28T11:29:28;6.60;72.90
20829;DHT22;10575;50.124;8.582;2023-02-28T11:34:39;6.60;72.90
20829;DHT22;10575;50.124;8.582;2023-02-28T11:37:11;6.60;73.50
20829;DHT22;10575;50.124;8.582;2023-02-28T11:39:37;6.50;74.80
20829;DHT22;10575;50.124;8.582;2023-02-28T11:42:23;6.40;73.40
20829;DHT22;10575;50.124;8.582;2023-02-28T11:48:12;6.40;74.90
20829;DHT22;10575;50.124;8.582;2023-02-28T11:56:31;6.10;77.80
20829;DHT22;10575;50.124;8.582;2023-02-28T12:07:25;6.10;76.30
20829;DHT22;10575;50.124;8.582;2023-02-28T12:10:21;6.10;76.30
20829;DHT22;10575;50.124;8.582;2023-02-28T12:27:17;6.10;78.40
20829;DHT22;10575;50.124;8.582;2023-02-28T12:29:55;6.20;76.70
20829;DHT22;10575;50.124;8.582;2023-02-28T12:35:02;6.20;77.50
20829;DHT22;10575;50.124;8.582;2023-02-28T12:37:43;6.10;77.50
20829;DHT22;10575;50.124;8.582;2023-02-28T12:40:15;6.20;79.30
20829;DHT22;10575;50.124;8.582;2023-02-28T12:42:48;6.00;79.40
20829;DHT22;10575;50.124;8.582;2023-02-28T12:45:27;5.90;79.70
20829;DHT22;10575;50.124;8.582;2023-02-28T12:48:00;5.80;79.70
20829;DHT22;10575;50.124;8.582;2023-02-28T12:50:28;5.90;80.90
20829;DHT22;10575;50.124;8.582;2023-02-28T12:53:22;6.00;79.50
20829;DHT22;10575;50.124;8.582;2023-02-28T12:56:17;5.90;79.10
20829;DHT22;10575;50.124;8.582;2023-02-28T12:59:12;5.90;80.40
20829;DHT22;10575;50.124;8.582;2023-02-28T13:02:01;5.80;80.00
20829;DHT22;10575;50.124;8.582;2023-02-28T13:04:47;5.80;79.80
20829;DHT22;10575;50.124;8.582;2023-02-28T13:07:38;5.70;80.50
20829;DHT22;10575;50.124;8.582;2023-02-28T13:10:07;5.70;80.90
20829;DHT22;10575;50.124;8.582;2023-02-28T13:12:34;5.60;80.60
20829;DHT22;10575;50.124;8.582;2023-02-28T13:15:27;5.50;82.40
20829;DHT22;10575;50.124;8.582;2023-02-28T13:17:56;5.60;81.00
20829;DHT22;10575;50.124;8.582;2023-02-28T13:20:33;5.60;81.80
20829;DHT22;10575;50.124;8.582;2023-02-28T13:22:59;5.60;81.30
20829;DHT22;10575;50.124;8.582;2023-02-28T13:28:12;5.60;82.50
20829;DHT22;10575;50.124;8.582;2023-02-28T13:33:32;5.50;80.30
20829;DHT22;10575;50.124;8.582;2023-02-28T13:38:56;5.60;81.40
20829;DHT22;10575;50.124;8.582;2023-02-28T13:44:19;5.80;81.50
20829;DHT22;10575;50.124;8.582;2023-02-28T13:51:55;5.80;81.90
20829;DHT22;10575;50.124;8.582;2023-02-28T14:00:52;5.70;82.60
20829;DHT22;10575;50.124;8.582;2023-02-28T14:03:35;5.90;83.20
20829;DHT22;10575;50.124;8.582;2023-02-28T14:06:28;5.90;83.20
20829;DHT22;10575;50.124;8.582;2023-02-28T14:09:19;5.90;83.20
20829;DHT22;10575;50.124;8.582;2023-02-28T14:11:46;6.00;83.00
20829;DHT22;10575;50.124;8.582;2023-02-28T14:16:59;6.10;83.20
20829;DHT22;10575;50.124;8.582;2023-02-28T14:19:28;6.00;83.90
20829;DHT22;10575;50.124;8.582;2023-02-28T14:25:16;5.90;82.20
20829;DHT22;10575;50.124;8.582;2023-02-28T14:31:15;5.60;83.60
20829;DHT22;10575;50.124;8.582;2023-02-28T14:36:39;5.70;83.00
20829;DHT22;10575;50.124;8.582;2023-02-28T14:39:14;5.70;83.60
20829;DHT22;10575;50.124;8.582;2023-02-28T14:41:42;5.60;83.20
20829;DHT22;10575;50.124;8.582;2023-02-28T14:44:23;5.60;85.30
20829;DHT22;10575;50.124;8.582;2023-02-28T14:47:00;5.80;84.70
20829;DHT22;10575;50.124;8.582;2023-02-28T14:49:42;5.90;84.40
20829;DHT22;10575;50.124;8.582;2023-02-28T14:52:25;6.10;83.20
20829;DHT22;10575;50.124;8.582;2023-02-28T14:57:33;6.00;83.00
20829;DHT22;10575;50.124;8.582;2023-02-28T15:00:57;5.90;83.90
20829;DHT22;10575;50.124;8.582;2023-02-28T15:03:29;5.80;83.80
20829;DHT22;10575;50.124;8.582;2023-02-28T15:05:58;5.70;84.50
20829;DHT22;10575;50.124;8.582;2023-02-28T15:08:24;5.70;85.40
20829;DHT22;10575;50.124;8.582;2023-02-28T15:10:58;5.70;85.00
20829;DHT22;10575;50.124;8.582;2023-02-28T15:13:52;5.80;84.90
20829;DHT22;10575;50.124;8.582;2023-02-28T15:16:26;5.80;85.20
20829;DHT22;10575;50.124;8.582;2023-02-28T15:18:59;5.70;85.20
20829;DHT22;10575;50.124;8.582;2023-02-28T15:21:29;5.70;85.30
20829;DHT22;10575;50.124;8.582;2023-02-28T15:24:04;5.80;85.90
20829;DHT22;10575;50.124;8.582;2023-02-28T15:26:33;5.80;86.70
20829;DHT22;10575;50.124;8.582;2023-02-28T15:29:04;5.70;85.60
20829;DHT22;10575;50.124;8.582;2023-02-28T15:31:39;5.70;85.80
20829;DHT22;10575;50.124;8.582;2023-02-28T15:34:12;5.60;86.20
20829;DHT22;10575;50.124;8.582;2023-02-28T15:36:41;5.70;86.70
20829;DHT22;10575;50.124;8.582;2023-02-28T15:39:22;5.60;86.50
20829;DHT22;10575;50.124;8.582;2023-02-28T15:41:49;5.60;86.60
20829;DHT22;10575;50.124;8.582;2023-02-28T15:44:28;5.50;86.80
20829;DHT22;10575;50.124;8.582;2023-02-28T15:47:06;5.40;87.30
20829;DHT22;10575;50.124;8.582;2023-02-28T15:49:39;5.40;87.50
20829;DHT22;10575;50.124;8.582;2023-02-28T15:52:05;5.30;87.60
20829;DHT22;10575;50.124;8.582;2023-02-28T15:54:35;5.30;87.80
20829;DHT22;10575;50.124;8.582;2023-02-28T15:57:21;5.30;88.00
20829;DHT22;10575;50.124;8.582;2023-02-28T15:59:55;5.30;88.60
20829;DHT22;10575;50.124;8.582;2023-02-28T16:02:29;5.30;90.00
20829;DHT22;10575;50.124;8.582;2023-02-28T16:07:34;5.20;89.70
20829;DHT22;10575;50.124;8.582;2023-02-28T16:10:01;5.20;90.00
20829;DHT22;10575;50.124;8.582;2023-02-28T16:12:29;5.10;90.00
20829;DHT22;10575;50.124;8.582;2023-02-28T16:14:56;5.10;90.20
20829;DHT22;10575;50.124;8.582;2023-02-28T16:17:25;5.10;90.20
20829;DHT22;10575;50.124;8.582;2023-02-28T16:19:51;5.00;90.50
20829;DHT22;10575;50.124;8.582;2023-02-28T16:22:17;5.10;90.90
20829;DHT22;10575;50.124;8.582;2023-02-28T16:24:43;5.00;91.00
20829;DHT22;10575;50.124;8.582;2023-02-28T16:27:17;5.00;91.00
20829;DHT22;10575;50.124;8.582;2023-02-28T16:29:44;5.00;91.00
20829;DHT22;10575;50.124;8.582;2023-02-28T16:32:13;5.00;91.20
20829;DHT22;10575;50.124;8.582;2023-02-28T16:34:39;4.90;91.30
20829;DHT22;10575;50.124;8.582;2023-02-28T16:37:14;4.90;91.60
20829;DHT22;10575;50.124;8.582;2023-02-28T16:39:41;4.90;91.70
20829;DHT22;10575;50.124;8.582;2023-02-28T16:42:22;4.90;92.00
20829;DHT22;10575;50.124;8.582;2023-02-28T16:44:49;4.80;92.10
20829;DHT22;10575;50.124;8.582;2023-02-28T16:47:14;4.80;92.20
20829;DHT22;10575;50.124;8.582;2023-02-28T16:49:41;4.80;92.30
20829;DHT22;10575;50.124;8.582;2023-02-28T16:52:09;4.70;92.60
20829;DHT22;10575;50.124;8.582;2023-02-28T16:54:35;4.70;92.70
20829;DHT22;10575;50.124;8.582;2023-02-28T16:57:01;4.70;92.80
20829;DHT22;10575;50.124;8.582;2023-02-28T16:59:27;4.60;92.90
20829;DHT22;10575;50.124;8.582;2023-02-28T17:01:55;4.60;92.90
20829;DHT22;10575;50.124;8.582;2023-02-28T17:04:23;4.50;92.70
20829;DHT22;10575;50.124;8.582;2023-02-28T17:06:49;4.50;92.90
20829;DHT22;10575;50.124;8.582;2023-02-28T17:09:20;4.50;93.20
20829;DHT22;10575;50.124;8.582;2023-02-28T17:11:46;4.40;93.40
20829;DHT22;10575;50.124;8.582;2023-02-28T17:14:12;4.40;93.70
20829;DHT22;10575;50.124;8.582;2023-02-28T17:16:38;4.30;94.00
20829;DHT22;10575;50.124;8.582;2023-02-28T17:19:14;4.20;94.40
20829;DHT22;10575;50.124;8.582;2023-02-28T17:21:44;4.10;94.70
20829;DHT22;10575;50.124;8.582;2023-02-28T17:24:10;4.10;95.00
20829;DHT22;10575;50.124;8.582;2023-02-28T17:26:37;4.10;95.00
20829;DHT22;10575;50.124;8.582;2023-02-28T17:29:09;4.10;95.30
20829;DHT22;10575;50.124;8.582;2023-02-28T17:31:38;4.00;95.20
20829;DHT22;10575;50.124;8.582;2023-02-28T17:34:04;4.00;95.00
20829;DHT22;10575;50.124;8.582;2023-02-28T17:36:30;4.00;95.30
20829;DHT22;10575;50.124;8.582;2023-02-28T17:38:56;3.90;95.70
20829;DHT22;10575;50.124;8.582;2023-02-28T17:41:23;3.90;95.50
20829;DHT22;10575;50.124;8.582;2023-02-28T17:43:49;3.90;96.00
20829;DHT22;10575;50.124;8.582;2023-02-28T17:46:17;3.90;95.60
20829;DHT22;10575;50.124;8.582;2023-02-28T17:48:45;3.80;95.80
20829;DHT22;10575;50.124;8.582;2023-02-28T17:51:13;3.80;96.00
20829;DHT22;10575;50.124;8.582;2023-02-28T17:53:39;3.70;96.50